sensor_id;sensor_type;location;lat;lon;timestamp;P1;durP1;ratioP1;P2;durP2;ratioP2
80425;SDS011;69766;51.476;5.704;2023-11-22T00:00:33;72.85;;;22.58;;
80425;SDS011;69766;51.476;5.704;2023-11-22T00:03:01;65.68;;;23.38;;
80425;SDS011;69766;51.476;5.704;2023-11-22T00:05:36;67.70;;;22.63;;
80425;SDS011;69766;51.476;5.704;2023-11-22T00:08:02;73.70;;;25.23;;
80425;SDS011;69766;51.476;5.704;2023-11-22T00:10:27;74.45;;;25.15;;
80425;SDS011;69766;51.476;5.704;2023-11-22T00:12:56;69.65;;;24.70;;
80425;SDS011;69766;51.476;5.704;2023-11-22T00:15:23;75.55;;;25.02;;
80425;SDS011;69766;51.476;5.704;2023-11-22T00:17:55;84.85;;;26.73;;
80425;SDS011;69766;51.476;5.704;2023-11-22T00:20:35;88.38;;;27.52;;
80425;SDS011;69766;51.476;5.704;2023-11-22T00:23:07;83.05;;;25.17;;
80425;SDS011;69766;51.476;5.704;2023-11-22T00:25:33;83.88;;;25.13;;
80425;SDS011;69766;51.476;5.704;2023-11-22T00:27:59;77.95;;;25.00;;
80425;SDS011;69766;51.476;5.704;2023-11-22T00:30:24;85.45;;;27.50;;
80425;SDS011;69766;51.476;5.704;2023-11-22T00:32:50;76.82;;;25.35;;
80425;SDS011;69766;51.476;5.704;2023-11-22T00:35:19;81.25;;;24.13;;
80425;SDS011;69766;51.476;5.704;2023-11-22T00:37:44;77.15;;;25.40;;
80425;SDS011;69766;51.476;5.704;2023-11-22T00:40:11;76.57;;;24.85;;
80425;SDS011;69766;51.476;5.704;2023-11-22T00:42:37;84.20;;;26.70;;
80425;SDS011;69766;51.476;5.704;2023-11-22T00:45:04;92.00;;;27.85;;
80425;SDS011;69766;51.476;5.704;2023-11-22T00:47:31;87.45;;;25.88;;
80425;SDS011;69766;51.476;5.704;2023-11-22T00:49:58;93.22;;;25.92;;
80425;SDS011;69766;51.476;5.704;2023-11-22T00:52:23;89.53;;;27.13;;
80425;SDS011;69766;51.476;5.704;2023-11-22T00:54:49;93.70;;;27.95;;
80425;SDS011;69766;51.476;5.704;2023-11-22T00:57:15;89.68;;;27.58;;
80425;SDS011;69766;51.476;5.704;2023-11-22T00:59:41;84.88;;;26.85;;
80425;SDS011;69766;51.476;5.704;2023-11-22T01:02:07;92.40;;;28.10;;
80425;SDS011;69766;51.476;5.704;2023-11-22T01:04:36;95.25;;;26.90;;
80425;SDS011;69766;51.476;5.704;2023-11-22T01:07:05;99.38;;;27.77;;
80425;SDS011;69766;51.476;5.704;2023-11-22T01:09:31;104.40;;;30.33;;
80425;SDS011;69766;51.476;5.704;2023-11-22T01:11:58;115.57;;;30.58;;
80425;SDS011;69766;51.476;5.704;2023-11-22T01:14:24;120.45;;;31.42;;
80425;SDS011;69766;51.476;5.704;2023-11-22T01:16:51;113.15;;;30.02;;
80425;SDS011;69766;51.476;5.704;2023-11-22T01:19:17;107.50;;;28.58;;
80425;SDS011;69766;51.476;5.704;2023-11-22T01:21:43;110.60;;;30.58;;
80425;SDS011;69766;51.476;5.704;2023-11-22T01:24:09;110.05;;;28.92;;
80425;SDS011;69766;51.476;5.704;2023-11-22T01:26:35;111.57;;;30.23;;
80425;SDS011;69766;51.476;5.704;2023-11-22T01:29:03;98.70;;;28.30;;
80425;SDS011;69766;51.476;5.704;2023-11-22T01:31:44;116.15;;;28.73;;
80425;SDS011;69766;51.476;5.704;2023-11-22T01:34:17;113.55;;;28.98;;
80425;SDS011;69766;51.476;5.704;2023-11-22T01:37:00;107.93;;;27.23;;
80425;SDS011;69766;51.476;5.704;2023-11-22T01:39:35;103.00;;;29.00;;
80425;SDS011;69766;51.476;5.704;2023-11-22T01:42:11;109.10;;;28.63;;
80425;SDS011;69766;51.476;5.704;2023-11-22T01:44:51;113.55;;;28.45;;
80425;SDS011;69766;51.476;5.704;2023-11-22T01:47:57;127.85;;;30.05;;
80425;SDS011;69766;51.476;5.704;2023-11-22T01:50:39;117.50;;;29.03;;
80425;SDS011;69766;51.476;5.704;2023-11-22T01:53:12;109.32;;;28.98;;
80425;SDS011;69766;51.476;5.704;2023-11-22T01:59:03;120.63;;;29.73;;
80425;SDS011;69766;51.476;5.704;2023-11-22T02:01:42;122.65;;;29.73;;
80425;SDS011;69766;51.476;5.704;2023-11-22T02:04:13;133.80;;;31.17;;
80425;SDS011;69766;51.476;5.704;2023-11-22T02:13:06;122.47;;;30.30;;
80425;SDS011;69766;51.476;5.704;2023-11-22T02:15:44;119.83;;;29.97;;
80425;SDS011;69766;51.476;5.704;2023-11-22T02:18:35;116.63;;;28.20;;
80425;SDS011;69766;51.476;5.704;2023-11-22T02:24:25;103.65;;;26.75;;
80425;SDS011;69766;51.476;5.704;2023-11-22T02:26:59;105.13;;;28.02;;
80425;SDS011;69766;51.476;5.704;2023-11-22T02:29:48;105.55;;;26.73;;
80425;SDS011;69766;51.476;5.704;2023-11-22T02:32:35;93.97;;;26.52;;
80425;SDS011;69766;51.476;5.704;2023-11-22T02:35:05;99.78;;;28.00;;
80425;SDS011;69766;51.476;5.704;2023-11-22T02:37:46;95.32;;;25.83;;
80425;SDS011;69766;51.476;5.704;2023-11-22T02:40:24;82.82;;;25.10;;
80425;SDS011;69766;51.476;5.704;2023-11-22T02:43:05;76.78;;;26.10;;
80425;SDS011;69766;51.476;5.704;2023-11-22T02:45:34;95.00;;;26.93;;
80425;SDS011;69766;51.476;5.704;2023-11-22T02:48:00;106.03;;;26.65;;
80425;SDS011;69766;51.476;5.704;2023-11-22T02:50:29;122.00;;;28.97;;
80425;SDS011;69766;51.476;5.704;2023-11-22T02:52:57;128.00;;;30.93;;
80425;SDS011;69766;51.476;5.704;2023-11-22T02:55:23;106.70;;;26.67;;
80425;SDS011;69766;51.476;5.704;2023-11-22T02:57:49;119.20;;;30.00;;
80425;SDS011;69766;51.476;5.704;2023-11-22T03:00:16;107.23;;;29.17;;
80425;SDS011;69766;51.476;5.704;2023-11-22T03:02:43;113.53;;;28.07;;
80425;SDS011;69766;51.476;5.704;2023-11-22T03:05:11;116.47;;;28.33;;
80425;SDS011;69766;51.476;5.704;2023-11-22T03:07:39;119.53;;;27.57;;
80425;SDS011;69766;51.476;5.704;2023-11-22T03:10:06;114.23;;;28.57;;
80425;SDS011;69766;51.476;5.704;2023-11-22T03:12:32;100.30;;;26.60;;
80425;SDS011;69766;51.476;5.704;2023-11-22T03:14:58;95.60;;;26.40;;
80425;SDS011;69766;51.476;5.704;2023-11-22T03:17:27;88.50;;;24.63;;
80425;SDS011;69766;51.476;5.704;2023-11-22T03:19:56;78.83;;;24.70;;
80425;SDS011;69766;51.476;5.704;2023-11-22T03:22:24;77.90;;;24.37;;
80425;SDS011;69766;51.476;5.704;2023-11-22T03:24:50;74.47;;;22.40;;
80425;SDS011;69766;51.476;5.704;2023-11-22T03:27:17;69.50;;;22.30;;
80425;SDS011;69766;51.476;5.704;2023-11-22T03:29:43;70.47;;;22.37;;
80425;SDS011;69766;51.476;5.704;2023-11-22T03:32:09;58.67;;;20.45;;
80425;SDS011;69766;51.476;5.704;2023-11-22T03:34:36;52.67;;;19.70;;
80425;SDS011;69766;51.476;5.704;2023-11-22T03:37:02;57.70;;;19.87;;
80425;SDS011;69766;51.476;5.704;2023-11-22T03:39:28;50.43;;;19.63;;
80425;SDS011;69766;51.476;5.704;2023-11-22T03:41:53;49.70;;;19.00;;
80425;SDS011;69766;51.476;5.704;2023-11-22T03:44:19;49.67;;;19.10;;
80425;SDS011;69766;51.476;5.704;2023-11-22T03:46:44;48.40;;;18.33;;
80425;SDS011;69766;51.476;5.704;2023-11-22T03:49:10;45.07;;;17.50;;
80425;SDS011;69766;51.476;5.704;2023-11-22T03:51:36;48.53;;;18.30;;
80425;SDS011;69766;51.476;5.704;2023-11-22T03:54:03;49.07;;;18.17;;
80425;SDS011;69766;51.476;5.704;2023-11-22T03:56:29;45.03;;;17.33;;
80425;SDS011;69766;51.476;5.704;2023-11-22T03:58:55;46.30;;;17.53;;
80425;SDS011;69766;51.476;5.704;2023-11-22T04:01:21;51.53;;;18.03;;
80425;SDS011;69766;51.476;5.704;2023-11-22T04:03:47;49.23;;;17.83;;
80425;SDS011;69766;51.476;5.704;2023-11-22T04:06:16;48.37;;;17.40;;
80425;SDS011;69766;51.476;5.704;2023-11-22T04:08:43;48.03;;;16.93;;
80425;SDS011;69766;51.476;5.704;2023-11-22T04:11:09;45.23;;;17.23;;
80425;SDS011;69766;51.476;5.704;2023-11-22T04:13:36;45.10;;;17.03;;
80425;SDS011;69766;51.476;5.704;2023-11-22T04:16:03;50.87;;;18.10;;
80425;SDS011;69766;51.476;5.704;2023-11-22T04:18:29;61.03;;;19.70;;
80425;SDS011;69766;51.476;5.704;2023-11-22T04:20:55;54.93;;;20.03;;
80425;SDS011;69766;51.476;5.704;2023-11-22T04:23:23;58.03;;;21.43;;
80425;SDS011;69766;51.476;5.704;2023-11-22T04:25:49;53.43;;;20.90;;
80425;SDS011;69766;51.476;5.704;2023-11-22T04:28:15;55.27;;;19.93;;
80425;SDS011;69766;51.476;5.704;2023-11-22T04:30:40;52.93;;;20.40;;
80425;SDS011;69766;51.476;5.704;2023-11-22T04:33:06;53.37;;;19.57;;
80425;SDS011;69766;51.476;5.704;2023-11-22T04:35:32;50.43;;;19.60;;
80425;SDS011;69766;51.476;5.704;2023-11-22T04:38:01;46.43;;;17.53;;
80425;SDS011;69766;51.476;5.704;2023-11-22T04:40:28;43.13;;;17.07;;
80425;SDS011;69766;51.476;5.704;2023-11-22T04:42:54;45.40;;;16.97;;
80425;SDS011;69766;51.476;5.704;2023-11-22T04:45:20;50.03;;;18.00;;
80425;SDS011;69766;51.476;5.704;2023-11-22T04:47:46;49.67;;;17.53;;
80425;SDS011;69766;51.476;5.704;2023-11-22T04:50:11;52.53;;;18.93;;
80425;SDS011;69766;51.476;5.704;2023-11-22T04:52:37;59.60;;;20.33;;
80425;SDS011;69766;51.476;5.704;2023-11-22T04:55:04;60.60;;;20.30;;
80425;SDS011;69766;51.476;5.704;2023-11-22T04:57:30;59.27;;;21.80;;
80425;SDS011;69766;51.476;5.704;2023-11-22T04:59:56;57.20;;;20.23;;
80425;SDS011;69766;51.476;5.704;2023-11-22T05:02:22;60.73;;;20.60;;
80425;SDS011;69766;51.476;5.704;2023-11-22T05:04:47;57.43;;;20.50;;
80425;SDS011;69766;51.476;5.704;2023-11-22T05:07:14;67.87;;;22.57;;
80425;SDS011;69766;51.476;5.704;2023-11-22T05:09:40;68.83;;;23.13;;
80425;SDS011;69766;51.476;5.704;2023-11-22T05:12:08;76.90;;;23.33;;
80425;SDS011;69766;51.476;5.704;2023-11-22T05:14:35;113.78;;;27.23;;
80425;SDS011;69766;51.476;5.704;2023-11-22T05:17:01;119.73;;;27.27;;
80425;SDS011;69766;51.476;5.704;2023-11-22T05:19:27;86.22;;;26.33;;
80425;SDS011;69766;51.476;5.704;2023-11-22T05:21:52;106.38;;;28.98;;
80425;SDS011;69766;51.476;5.704;2023-11-22T05:24:18;130.80;;;32.40;;
80425;SDS011;69766;51.476;5.704;2023-11-22T05:26:44;209.35;;;35.90;;
80425;SDS011;69766;51.476;5.704;2023-11-22T05:29:10;313.15;;;41.72;;
80425;SDS011;69766;51.476;5.704;2023-11-22T05:31:36;312.33;;;41.65;;
80425;SDS011;69766;51.476;5.704;2023-11-22T05:34:02;264.47;;;40.93;;
80425;SDS011;69766;51.476;5.704;2023-11-22T05:36:28;237.32;;;35.83;;
80425;SDS011;69766;51.476;5.704;2023-11-22T05:38:54;173.95;;;32.63;;
80425;SDS011;69766;51.476;5.704;2023-11-22T05:41:24;207.50;;;34.70;;
80425;SDS011;69766;51.476;5.704;2023-11-22T05:43:51;96.55;;;29.45;;
80425;SDS011;69766;51.476;5.704;2023-11-22T05:46:22;98.35;;;27.33;;
80425;SDS011;69766;51.476;5.704;2023-11-22T05:48:50;250.80;;;35.10;;
80425;SDS011;69766;51.476;5.704;2023-11-22T05:51:16;105.97;;;26.58;;
80425;SDS011;69766;51.476;5.704;2023-11-22T05:53:42;136.32;;;28.35;;
80425;SDS011;69766;51.476;5.704;2023-11-22T05:56:08;179.10;;;32.50;;
80425;SDS011;69766;51.476;5.704;2023-11-22T05:58:34;146.57;;;29.48;;
80425;SDS011;69766;51.476;5.704;2023-11-22T06:01:04;160.15;;;29.48;;
80425;SDS011;69766;51.476;5.704;2023-11-22T06:03:32;161.35;;;28.77;;
80425;SDS011;69766;51.476;5.704;2023-11-22T06:05:59;107.13;;;27.15;;
80425;SDS011;69766;51.476;5.704;2023-11-22T06:08:25;177.82;;;34.15;;
80425;SDS011;69766;51.476;5.704;2023-11-22T06:10:50;199.25;;;33.40;;
80425;SDS011;69766;51.476;5.704;2023-11-22T06:13:18;148.68;;;29.98;;
80425;SDS011;69766;51.476;5.704;2023-11-22T06:15:44;138.63;;;28.67;;
80425;SDS011;69766;51.476;5.704;2023-11-22T06:18:10;154.13;;;32.40;;
80425;SDS011;69766;51.476;5.704;2023-11-22T06:20:39;126.47;;;28.85;;
80425;SDS011;69766;51.476;5.704;2023-11-22T06:23:05;108.85;;;27.65;;
80425;SDS011;69766;51.476;5.704;2023-11-22T06:25:30;145.27;;;29.75;;
80425;SDS011;69766;51.476;5.704;2023-11-22T06:27:56;158.80;;;32.55;;
80425;SDS011;69766;51.476;5.704;2023-11-22T06:30:21;135.88;;;30.35;;
80425;SDS011;69766;51.476;5.704;2023-11-22T06:32:48;182.75;;;31.35;;
80425;SDS011;69766;51.476;5.704;2023-11-22T06:35:14;120.85;;;27.55;;
80425;SDS011;69766;51.476;5.704;2023-11-22T06:37:40;136.48;;;28.45;;
80425;SDS011;69766;51.476;5.704;2023-11-22T06:40:06;149.23;;;31.48;;
80425;SDS011;69766;51.476;5.704;2023-11-22T06:42:37;125.72;;;28.80;;
80425;SDS011;69766;51.476;5.704;2023-11-22T06:45:04;98.72;;;25.15;;
80425;SDS011;69766;51.476;5.704;2023-11-22T06:47:35;79.43;;;23.00;;
80425;SDS011;69766;51.476;5.704;2023-11-22T06:50:01;95.28;;;26.70;;
80425;SDS011;69766;51.476;5.704;2023-11-22T06:52:34;88.60;;;25.20;;
80425;SDS011;69766;51.476;5.704;2023-11-22T06:55:00;141.23;;;27.30;;
80425;SDS011;69766;51.476;5.704;2023-11-22T06:57:26;101.38;;;26.48;;
80425;SDS011;69766;51.476;5.704;2023-11-22T06:59:54;107.07;;;26.92;;
80425;SDS011;69766;51.476;5.704;2023-11-22T07:02:21;95.47;;;26.00;;
80425;SDS011;69766;51.476;5.704;2023-11-22T07:04:46;158.05;;;29.00;;
80425;SDS011;69766;51.476;5.704;2023-11-22T07:07:12;204.32;;;31.80;;
80425;SDS011;69766;51.476;5.704;2023-11-22T07:09:41;88.13;;;23.65;;
80425;SDS011;69766;51.476;5.704;2023-11-22T07:12:07;129.15;;;28.55;;
80425;SDS011;69766;51.476;5.704;2023-11-22T07:14:33;177.50;;;30.17;;
80425;SDS011;69766;51.476;5.704;2023-11-22T07:16:59;83.53;;;26.20;;
80425;SDS011;69766;51.476;5.704;2023-11-22T07:19:25;256.08;;;35.88;;
80425;SDS011;69766;51.476;5.704;2023-11-22T07:21:51;98.35;;;26.80;;
80425;SDS011;69766;51.476;5.704;2023-11-22T07:24:18;139.57;;;31.52;;
80425;SDS011;69766;51.476;5.704;2023-11-22T07:26:44;285.58;;;36.20;;
80425;SDS011;69766;51.476;5.704;2023-11-22T07:29:10;300.92;;;38.83;;
80425;SDS011;69766;51.476;5.704;2023-11-22T07:31:37;130.52;;;30.88;;
80425;SDS011;69766;51.476;5.704;2023-11-22T07:34:04;151.57;;;33.22;;
80425;SDS011;69766;51.476;5.704;2023-11-22T07:36:31;170.57;;;33.70;;
80425;SDS011;69766;51.476;5.704;2023-11-22T07:38:57;146.98;;;31.15;;
80425;SDS011;69766;51.476;5.704;2023-11-22T07:41:22;103.85;;;28.58;;
80425;SDS011;69766;51.476;5.704;2023-11-22T07:43:48;106.55;;;29.70;;
80425;SDS011;69766;51.476;5.704;2023-11-22T07:46:14;172.18;;;32.50;;
80425;SDS011;69766;51.476;5.704;2023-11-22T07:48:42;193.65;;;34.80;;
80425;SDS011;69766;51.476;5.704;2023-11-22T07:51:08;162.27;;;34.90;;
80425;SDS011;69766;51.476;5.704;2023-11-22T07:53:54;153.52;;;34.20;;
80425;SDS011;69766;51.476;5.704;2023-11-22T07:56:20;139.07;;;32.75;;
80425;SDS011;69766;51.476;5.704;2023-11-22T07:58:46;136.52;;;33.92;;
80425;SDS011;69766;51.476;5.704;2023-11-22T08:01:12;152.68;;;37.17;;
80425;SDS011;69766;51.476;5.704;2023-11-22T08:03:39;172.70;;;35.90;;
80425;SDS011;69766;51.476;5.704;2023-11-22T08:06:13;161.10;;;36.35;;
80425;SDS011;69766;51.476;5.704;2023-11-22T08:08:39;141.10;;;34.65;;
80425;SDS011;69766;51.476;5.704;2023-11-22T08:11:05;140.15;;;33.60;;
80425;SDS011;69766;51.476;5.704;2023-11-22T08:13:39;151.60;;;34.92;;
80425;SDS011;69766;51.476;5.704;2023-11-22T08:16:08;124.50;;;33.60;;
80425;SDS011;69766;51.476;5.704;2023-11-22T08:18:34;127.65;;;33.67;;
80425;SDS011;69766;51.476;5.704;2023-11-22T08:21:00;117.82;;;31.83;;
80425;SDS011;69766;51.476;5.704;2023-11-22T08:23:25;123.50;;;32.97;;
80425;SDS011;69766;51.476;5.704;2023-11-22T08:25:57;125.97;;;36.65;;
80425;SDS011;69766;51.476;5.704;2023-11-22T08:28:26;117.93;;;34.05;;
80425;SDS011;69766;51.476;5.704;2023-11-22T08:30:52;162.65;;;35.90;;
80425;SDS011;69766;51.476;5.704;2023-11-22T08:33:18;161.18;;;37.92;;
80425;SDS011;69766;51.476;5.704;2023-11-22T08:35:44;143.88;;;36.78;;
80425;SDS011;69766;51.476;5.704;2023-11-22T08:38:15;144.55;;;36.78;;
80425;SDS011;69766;51.476;5.704;2023-11-22T08:40:42;140.02;;;36.50;;
80425;SDS011;69766;51.476;5.704;2023-11-22T08:43:08;142.82;;;37.67;;
80425;SDS011;69766;51.476;5.704;2023-11-22T08:45:34;125.55;;;35.45;;
80425;SDS011;69766;51.476;5.704;2023-11-22T08:47:59;125.82;;;34.78;;
80425;SDS011;69766;51.476;5.704;2023-11-22T08:50:25;146.68;;;38.50;;
80425;SDS011;69766;51.476;5.704;2023-11-22T08:52:51;129.35;;;34.28;;
80425;SDS011;69766;51.476;5.704;2023-11-22T08:55:19;114.45;;;35.10;;
80425;SDS011;69766;51.476;5.704;2023-11-22T08:57:47;107.93;;;30.73;;
80425;SDS011;69766;51.476;5.704;2023-11-22T09:00:16;119.35;;;32.72;;
80425;SDS011;69766;51.476;5.704;2023-11-22T09:02:47;120.20;;;34.60;;
80425;SDS011;69766;51.476;5.704;2023-11-22T09:05:16;106.60;;;36.15;;
80425;SDS011;69766;51.476;5.704;2023-11-22T09:07:44;96.25;;;31.73;;
80425;SDS011;69766;51.476;5.704;2023-11-22T09:10:11;93.60;;;30.00;;
80425;SDS011;69766;51.476;5.704;2023-11-22T09:12:39;95.55;;;31.08;;
80425;SDS011;69766;51.476;5.704;2023-11-22T09:15:06;93.97;;;31.40;;
80425;SDS011;69766;51.476;5.704;2023-11-22T09:17:38;97.85;;;31.63;;
80425;SDS011;69766;51.476;5.704;2023-11-22T09:20:14;94.03;;;31.10;;
80425;SDS011;69766;51.476;5.704;2023-11-22T09:25:15;85.30;;;29.03;;
80425;SDS011;69766;51.476;5.704;2023-11-22T09:27:45;88.72;;;30.67;;
80425;SDS011;69766;51.476;5.704;2023-11-22T09:30:12;87.20;;;29.42;;
80425;SDS011;69766;51.476;5.704;2023-11-22T09:32:47;82.55;;;30.67;;
80425;SDS011;69766;51.476;5.704;2023-11-22T09:35:14;82.40;;;29.63;;
80425;SDS011;69766;51.476;5.704;2023-11-22T09:38:23;96.63;;;31.10;;
80425;SDS011;69766;51.476;5.704;2023-11-22T09:40:49;86.00;;;32.58;;
80425;SDS011;69766;51.476;5.704;2023-11-22T09:43:18;94.07;;;31.48;;
80425;SDS011;69766;51.476;5.704;2023-11-22T09:45:45;87.63;;;32.88;;
80425;SDS011;69766;51.476;5.704;2023-11-22T09:48:17;97.78;;;31.30;;
80425;SDS011;69766;51.476;5.704;2023-11-22T09:56:30;85.13;;;30.08;;
80425;SDS011;69766;51.476;5.704;2023-11-22T09:58:58;87.65;;;31.77;;
80425;SDS011;69766;51.476;5.704;2023-11-22T10:01:28;85.20;;;32.15;;
80425;SDS011;69766;51.476;5.704;2023-11-22T10:03:56;95.00;;;32.00;;
80425;SDS011;69766;51.476;5.704;2023-11-22T10:06:22;77.10;;;28.85;;
80425;SDS011;69766;51.476;5.704;2023-11-22T10:08:48;108.40;;;34.92;;
80425;SDS011;69766;51.476;5.704;2023-11-22T10:11:15;85.50;;;31.15;;
80425;SDS011;69766;51.476;5.704;2023-11-22T10:13:43;74.53;;;29.92;;
80425;SDS011;69766;51.476;5.704;2023-11-22T10:16:11;78.30;;;28.23;;
80425;SDS011;69766;51.476;5.704;2023-11-22T10:18:44;81.28;;;29.40;;
80425;SDS011;69766;51.476;5.704;2023-11-22T10:23:49;67.15;;;27.27;;
80425;SDS011;69766;51.476;5.704;2023-11-22T10:26:19;69.60;;;27.63;;
80425;SDS011;69766;51.476;5.704;2023-11-22T10:28:45;66.13;;;26.23;;
80425;SDS011;69766;51.476;5.704;2023-11-22T10:31:10;75.38;;;28.80;;
80425;SDS011;69766;51.476;5.704;2023-11-22T10:33:39;78.05;;;30.38;;
80425;SDS011;69766;51.476;5.704;2023-11-22T10:36:08;73.25;;;29.52;;
80425;SDS011;69766;51.476;5.704;2023-11-22T10:38:35;81.70;;;32.08;;
80425;SDS011;69766;51.476;5.704;2023-11-22T10:41:07;74.45;;;30.40;;
80425;SDS011;69766;51.476;5.704;2023-11-22T10:43:37;87.22;;;36.80;;
80425;SDS011;69766;51.476;5.704;2023-11-22T10:46:03;65.22;;;27.13;;
80425;SDS011;69766;51.476;5.704;2023-11-22T10:48:30;64.72;;;27.23;;
80425;SDS011;69766;51.476;5.704;2023-11-22T10:50:58;66.43;;;27.98;;
80425;SDS011;69766;51.476;5.704;2023-11-22T10:53:32;66.47;;;28.50;;
80425;SDS011;69766;51.476;5.704;2023-11-22T10:56:02;66.10;;;28.35;;
80425;SDS011;69766;51.476;5.704;2023-11-22T10:58:49;69.47;;;26.70;;
80425;SDS011;69766;51.476;5.704;2023-11-22T11:01:16;66.40;;;28.83;;
80425;SDS011;69766;51.476;5.704;2023-11-22T11:03:44;67.63;;;27.17;;
80425;SDS011;69766;51.476;5.704;2023-11-22T11:06:20;62.13;;;26.83;;
80425;SDS011;69766;51.476;5.704;2023-11-22T11:08:53;64.00;;;25.75;;
80425;SDS011;69766;51.476;5.704;2023-11-22T11:11:20;59.10;;;24.98;;
80425;SDS011;69766;51.476;5.704;2023-11-22T11:13:47;60.58;;;23.00;;
80425;SDS011;69766;51.476;5.704;2023-11-22T11:16:14;57.80;;;25.63;;
80425;SDS011;69766;51.476;5.704;2023-11-22T11:18:44;57.25;;;25.00;;
80425;SDS011;69766;51.476;5.704;2023-11-22T11:21:09;67.32;;;27.63;;
80425;SDS011;69766;51.476;5.704;2023-11-22T11:23:38;56.65;;;24.13;;
80425;SDS011;69766;51.476;5.704;2023-11-22T11:26:13;62.47;;;24.75;;
80425;SDS011;69766;51.476;5.704;2023-11-22T11:28:45;59.40;;;25.35;;
80425;SDS011;69766;51.476;5.704;2023-11-22T11:31:14;67.78;;;26.35;;
80425;SDS011;69766;51.476;5.704;2023-11-22T11:36:28;64.63;;;27.40;;
80425;SDS011;69766;51.476;5.704;2023-11-22T11:38:57;64.97;;;27.55;;
80425;SDS011;69766;51.476;5.704;2023-11-22T11:41:27;60.30;;;26.52;;
80425;SDS011;69766;51.476;5.704;2023-11-22T11:44:00;59.20;;;26.08;;
80425;SDS011;69766;51.476;5.704;2023-11-22T11:46:28;63.15;;;26.02;;
80425;SDS011;69766;51.476;5.704;2023-11-22T11:48:58;63.78;;;26.05;;
80425;SDS011;69766;51.476;5.704;2023-11-22T11:51:27;71.05;;;28.08;;
80425;SDS011;69766;51.476;5.704;2023-11-22T11:53:57;68.38;;;27.63;;
80425;SDS011;69766;51.476;5.704;2023-11-22T11:56:22;65.20;;;26.98;;
80425;SDS011;69766;51.476;5.704;2023-11-22T11:58:51;62.58;;;26.40;;
80425;SDS011;69766;51.476;5.704;2023-11-22T12:01:17;64.78;;;26.67;;
80425;SDS011;69766;51.476;5.704;2023-11-22T12:03:46;63.17;;;25.67;;
80425;SDS011;69766;51.476;5.704;2023-11-22T12:06:16;67.20;;;25.58;;
80425;SDS011;69766;51.476;5.704;2023-11-22T12:08:42;60.75;;;25.00;;
80425;SDS011;69766;51.476;5.704;2023-11-22T12:11:08;64.53;;;25.80;;
80425;SDS011;69766;51.476;5.704;2023-11-22T12:13:35;68.78;;;26.77;;
80425;SDS011;69766;51.476;5.704;2023-11-22T12:16:08;69.35;;;27.52;;
80425;SDS011;69766;51.476;5.704;2023-11-22T12:18:39;82.78;;;34.00;;
80425;SDS011;69766;51.476;5.704;2023-11-22T12:21:07;78.32;;;30.90;;
80425;SDS011;69766;51.476;5.704;2023-11-22T12:23:33;100.18;;;38.45;;
80425;SDS011;69766;51.476;5.704;2023-11-22T12:25:59;123.38;;;48.03;;
80425;SDS011;69766;51.476;5.704;2023-11-22T12:28:27;75.40;;;30.15;;
80425;SDS011;69766;51.476;5.704;2023-11-22T12:30:54;83.47;;;32.38;;
80425;SDS011;69766;51.476;5.704;2023-11-22T12:33:31;71.15;;;26.92;;
80425;SDS011;69766;51.476;5.704;2023-11-22T12:35:57;67.35;;;25.08;;
80425;SDS011;69766;51.476;5.704;2023-11-22T12:38:23;68.35;;;26.45;;
80425;SDS011;69766;51.476;5.704;2023-11-22T12:40:56;68.35;;;28.35;;
80425;SDS011;69766;51.476;5.704;2023-11-22T12:43:22;55.10;;;24.98;;
80425;SDS011;69766;51.476;5.704;2023-11-22T12:45:47;53.53;;;24.67;;
80425;SDS011;69766;51.476;5.704;2023-11-22T12:48:27;59.03;;;24.80;;
80425;SDS011;69766;51.476;5.704;2023-11-22T12:50:57;64.13;;;24.42;;
80425;SDS011;69766;51.476;5.704;2023-11-22T12:53:23;60.03;;;25.00;;
80425;SDS011;69766;51.476;5.704;2023-11-22T12:55:53;64.68;;;24.77;;
80425;SDS011;69766;51.476;5.704;2023-11-22T12:58:23;61.47;;;25.05;;
80425;SDS011;69766;51.476;5.704;2023-11-22T13:00:50;56.47;;;23.37;;
80425;SDS011;69766;51.476;5.704;2023-11-22T13:03:23;51.80;;;21.73;;
80425;SDS011;69766;51.476;5.704;2023-11-22T13:05:49;57.53;;;22.58;;
80425;SDS011;69766;51.476;5.704;2023-11-22T13:08:17;53.38;;;23.77;;
80425;SDS011;69766;51.476;5.704;2023-11-22T13:10:44;53.22;;;22.70;;
80425;SDS011;69766;51.476;5.704;2023-11-22T13:13:12;55.63;;;22.70;;
80425;SDS011;69766;51.476;5.704;2023-11-22T13:15:39;55.35;;;23.33;;
80425;SDS011;69766;51.476;5.704;2023-11-22T13:18:07;54.10;;;21.80;;
80425;SDS011;69766;51.476;5.704;2023-11-22T13:20:33;61.38;;;25.05;;
80425;SDS011;69766;51.476;5.704;2023-11-22T13:23:00;60.72;;;24.30;;
80425;SDS011;69766;51.476;5.704;2023-11-22T13:25:27;59.97;;;25.77;;
80425;SDS011;69766;51.476;5.704;2023-11-22T13:27:53;61.67;;;25.80;;
80425;SDS011;69766;51.476;5.704;2023-11-22T13:30:21;52.65;;;22.77;;
80425;SDS011;69766;51.476;5.704;2023-11-22T13:32:50;52.22;;;20.98;;
80425;SDS011;69766;51.476;5.704;2023-11-22T13:35:23;56.15;;;25.88;;
80425;SDS011;69766;51.476;5.704;2023-11-22T13:37:55;53.80;;;23.25;;
80425;SDS011;69766;51.476;5.704;2023-11-22T13:40:22;48.95;;;22.02;;
80425;SDS011;69766;51.476;5.704;2023-11-22T13:42:51;57.75;;;21.65;;
80425;SDS011;69766;51.476;5.704;2023-11-22T13:45:20;49.00;;;20.80;;
80425;SDS011;69766;51.476;5.704;2023-11-22T13:50:15;47.80;;;21.08;;
80425;SDS011;69766;51.476;5.704;2023-11-22T13:52:53;54.47;;;23.02;;
80425;SDS011;69766;51.476;5.704;2023-11-22T13:55:21;62.30;;;23.83;;
80425;SDS011;69766;51.476;5.704;2023-11-22T13:57:50;53.00;;;22.33;;
80425;SDS011;69766;51.476;5.704;2023-11-22T14:00:18;52.55;;;22.95;;
80425;SDS011;69766;51.476;5.704;2023-11-22T14:02:45;59.20;;;23.80;;
80425;SDS011;69766;51.476;5.704;2023-11-22T14:05:11;51.90;;;21.63;;
80425;SDS011;69766;51.476;5.704;2023-11-22T14:07:38;51.20;;;23.33;;
80425;SDS011;69766;51.476;5.704;2023-11-22T14:10:04;46.97;;;20.45;;
80425;SDS011;69766;51.476;5.704;2023-11-22T14:12:31;55.58;;;21.77;;
80425;SDS011;69766;51.476;5.704;2023-11-22T14:14:57;51.80;;;19.17;;
80425;SDS011;69766;51.476;5.704;2023-11-22T14:17:24;63.22;;;26.63;;
80425;SDS011;69766;51.476;5.704;2023-11-22T14:19:51;94.40;;;38.63;;
80425;SDS011;69766;51.476;5.704;2023-11-22T14:22:18;64.68;;;25.95;;
80425;SDS011;69766;51.476;5.704;2023-11-22T14:24:44;50.65;;;19.85;;
80425;SDS011;69766;51.476;5.704;2023-11-22T14:27:12;59.88;;;24.17;;
80425;SDS011;69766;51.476;5.704;2023-11-22T14:29:38;56.47;;;25.92;;
80425;SDS011;69766;51.476;5.704;2023-11-22T14:32:05;57.28;;;27.73;;
80425;SDS011;69766;51.476;5.704;2023-11-22T14:34:32;64.50;;;29.67;;
80425;SDS011;69766;51.476;5.704;2023-11-22T14:36:58;56.40;;;26.02;;
80425;SDS011;69766;51.476;5.704;2023-11-22T14:39:23;49.63;;;21.95;;
80425;SDS011;69766;51.476;5.704;2023-11-22T14:41:49;56.22;;;21.98;;
80425;SDS011;69766;51.476;5.704;2023-11-22T14:44:16;49.58;;;21.30;;
80425;SDS011;69766;51.476;5.704;2023-11-22T14:46:43;47.50;;;19.77;;
80425;SDS011;69766;51.476;5.704;2023-11-22T14:49:09;42.58;;;17.42;;
80425;SDS011;69766;51.476;5.704;2023-11-22T14:51:34;39.88;;;16.30;;